Latest Weather Observations for Sellicks Hill

IDS60901

Issued at 7:31 am CDT Saturday 16 October 2021 (issued every 10 minutes, with the page automatically refreshed every 10 minutes)

About weather observations | Map of Adelaide area stations | Latest observations for Adelaide area | Other Formats
Station Details ID: 023886 Name: MOUNT TERRIBLE RADAR Lat: -35.33 Lon: 138.50 Height: 385.7 m
Data from the previous 72 hours. | See also: Recent months at Sellicks Hill
Date/Time
CDT
Temp
°C
App
Temp
°C
Dew
Point
°C
Rel
Hum
%
Delta-T
°C
Wind Press
QNH
hPa
Press
MSL
hPa
Rain since
9am
mm
Dir  Spd
km/h
Gust
km/h
Spd
kts
Gust
kts
16/07:30am - - - - - SW 6 13 3 7 - - -
16/07:00am - - - - - SW 7 17 4 9 - - -
16/06:30am - - - - - SW 6 11 3 6 - - -
16/06:00am - - - - - SW 7 13 4 7 - - -
16/05:30am - - - - - WSW 6 11 3 6 - - -
16/05:00am - - - - - WSW 6 11 3 6 - - -
16/04:30am - - - - - SW 6 17 3 9 - - -
16/04:00am - - - - - SW 6 11 3 6 - - -
16/03:30am - - - - - SW 7 15 4 8 - - -
16/03:00am - - - - - SW 7 15 4 8 - - -
16/02:30am - - - - - W 4 11 2 6 - - -
16/02:00am - - - - - WSW 6 11 3 6 - - -
16/01:30am - - - - - WSW 6 13 3 7 - - -
16/01:00am - - - - - SW 6 13 3 7 - - -
16/12:30am - - - - - SW 6 17 3 9 - - -
16/12:00am - - - - - WSW 6 9 3 5 - - -
 
Date/Time
CDT
Temp
°C
App
Temp
°C
Dew
Point
°C
Rel
Hum
%
Delta-T
°C
Wind Press
QNH
hPa
Press
MSL
hPa
Rain since
9am
mm
Dir  Spd
km/h
Gust
km/h
Spd
kts
Gust
kts
15/11:30pm - - - - - SW 7 19 4 10 - - -
15/11:00pm - - - - - SW 7 15 4 8 - - -
15/10:30pm - - - - - SW 7 17 4 9 - - -
15/10:00pm - - - - - SSW 9 20 5 11 - - -
15/09:30pm - - - - - SSW 9 15 5 8 - - -
15/09:00pm - - - - - SW 9 19 5 10 - - -
15/08:30pm - - - - - SW 9 20 5 11 - - -
15/08:00pm - - - - - SW 7 19 4 10 - - -
15/07:30pm - - - - - SSW 7 17 4 9 - - -
15/07:00pm - - - - - SSW 9 20 5 11 - - -
15/06:30pm - - - - - SSW 9 19 5 10 - - -
15/06:00pm - - - - - SSW 9 19 5 10 - - -
15/05:30pm - - - - - SSW 7 17 4 9 - - -
15/05:00pm - - - - - SSW 11 22 6 12 - - -
15/04:30pm - - - - - SW 11 24 6 13 - - -
15/04:00pm - - - - - SSW 11 35 6 19 - - -
15/03:30pm - - - - - SSW 9 19 5 10 - - -
15/03:00pm - - - - - SSW 9 20 5 11 - - -
15/02:30pm - - - - - S 17 33 9 18 - - -
15/02:00pm - - - - - SW 9 20 5 11 - - -
15/01:30pm - - - - - SW 9 19 5 10 - - -
15/01:00pm - - - - - SW 9 22 5 12 - - -
15/12:30pm - - - - - SSW 9 22 5 12 - - -
15/12:00pm - - - - - SSW 11 22 6 12 - - -
15/11:30am - - - - - SSW 11 32 6 17 - - -
15/11:00am - - - - - SSW 9 17 5 9 - - -
15/10:30am - - - - - SSW 9 20 5 11 - - -
15/10:00am - - - - - S 13 24 7 13 - - -
15/09:30am - - - - - S 22 32 12 17 - - -
15/09:00am - - - - - S 28 43 15 23 - - -
15/08:30am - - - - - SSE 24 30 13 16 - - -
15/08:00am - - - - - SSE 28 33 15 18 - - -
15/07:30am - - - - - SSE 33 39 18 21 - - -
15/07:00am - - - - - SSE 33 43 18 23 - - -
15/06:30am - - - - - SE 35 43 19 23 - - -
15/06:00am - - - - - SSE 39 46 21 25 - - -
15/05:30am - - - - - SSE 35 41 19 22 - - -
15/05:00am - - - - - SSE 22 26 12 14 - - -
15/04:30am - - - - - SSE 13 15 7 8 - - -
15/04:00am - - - - - SW 6 9 3 5 - - -
15/03:30am - - - - - SW 9 17 5 9 - - -
15/03:00am - - - - - SW 11 20 6 11 - - -
15/02:30am - - - - - SSW 11 20 6 11 - - -
15/02:00am - - - - - SW 7 17 4 9 - - -
15/01:30am - - - - - SW 7 17 4 9 - - -
15/01:00am - - - - - SW 13 32 7 17 - - -
15/12:30am - - - - - SW 9 20 5 11 - - -
15/12:00am - - - - - NNW 7 15 4 8 - - -
 
Date/Time
CDT
Temp
°C
App
Temp
°C
Dew
Point
°C
Rel
Hum
%
Delta-T
°C
Wind Press
QNH
hPa
Press
MSL
hPa
Rain since
9am
mm
Dir  Spd
km/h
Gust
km/h
Spd
kts
Gust
kts
14/11:30pm - - - - - NNW 9 15 5 8 - - -
14/11:00pm - - - - - NW 9 20 5 11 - - -
14/10:30pm - - - - - WNW 7 13 4 7 - - -
14/10:00pm - - - - - WNW 6 17 3 9 - - -
14/09:30pm - - - - - W 9 19 5 10 - - -
14/09:00pm - - - - - W 6 11 3 6 - - -
14/08:30pm - - - - - SW 7 15 4 8 - - -
14/08:00pm - - - - - SW 7 15 4 8 - - -
14/07:30pm - - - - - SSW 7 15 4 8 - - -
14/07:00pm - - - - - SSW 6 15 3 8 - - -
14/06:30pm - - - - - SSW 7 15 4 8 - - -
14/06:00pm - - - - - S 15 28 8 15 - - -
14/05:30pm - - - - - SSW 11 26 6 14 - - -
14/05:00pm - - - - - SSW 7 24 4 13 - - -
14/04:30pm - - - - - SSW 6 13 3 7 - - -
14/04:00pm - - - - - SSE 13 17 7 9 - - -
14/03:30pm - - - - - S 9 17 5 9 - - -
14/03:00pm - - - - - SSW 6 9 3 5 - - -
14/02:30pm - - - - - SSW 6 15 3 8 - - -
14/02:00pm - - - - - WSW 6 13 3 7 - - -
14/01:30pm - - - - - WSW 4 7 2 4 - - -
14/01:00pm - - - - - W 4 7 2 4 - - -
14/12:30pm - - - - - ENE 4 9 2 5 - - -
14/12:00pm - - - - - E 9 17 5 9 - - -
14/11:30am - - - - - ENE 11 17 6 9 - - -
14/11:00am - - - - - NE 7 15 4 8 - - -
14/10:30am - - - - - NE 7 13 4 7 - - -
14/10:00am - - - - - NE 11 20 6 11 - - -
14/09:30am - - - - - ENE 13 20 7 11 - - -
14/09:00am - - - - - E 15 24 8 13 - - -
14/08:30am - - - - - NE 9 17 5 9 - - -
14/08:00am - - - - - NE 13 20 7 11 - - -
14/07:30am - - - - - NE 15 28 8 15 - - -
14/07:00am - - - - - NE 17 32 9 17 - - -
14/06:30am - - - - - NNE 15 24 8 13 - - -
14/06:00am - - - - - NNE 11 20 6 11 - - -
14/05:30am - - - - - NE 9 17 5 9 - - -
14/05:00am - - - - - NNE 13 19 7 10 - - -
14/04:30am - - - - - NNE 11 17 6 9 - - -
14/04:00am - - - - - NNE 11 15 6 8 - - -
14/03:30am - - - - - NNE 11 19 6 10 - - -
14/03:00am - - - - - NE 11 20 6 11 - - -
14/02:30am - - - - - NNE 13 22 7 12 - - -
14/02:00am - - - - - NNE 15 26 8 14 - - -
14/01:30am - - - - - N 13 24 7 13 - - -
14/01:00am - - - - - N 11 19 6 10 - - -
14/12:30am - - - - - N 7 13 4 7 - - -
14/12:00am - - - - - N 7 13 4 7 - - -
 
Date/Time
CDT
Temp
°C
App
Temp
°C
Dew
Point
°C
Rel
Hum
%
Delta-T
°C
Wind Press
QNH
hPa
Press
MSL
hPa
Rain since
9am
mm
Dir  Spd
km/h
Gust
km/h
Spd
kts
Gust
kts
13/11:30pm - - - - - N 6 11 3 6 - - -
13/11:00pm - - - - - N 4 6 2 3 - - -
13/10:30pm - - - - - NNW 4 6 2 3 - - -
13/10:00pm - - - - - NNW 6 9 3 5 - - -
13/09:30pm - - - - - NNW 7 11 4 6 - - -
13/09:00pm - - - - - NNW 7 15 4 8 - - -
13/08:30pm - - - - - NNW 9 17 5 9 - - -
13/08:00pm - - - - - NW 9 17 5 9 - - -
13/07:30pm - - - - - NW 11 20 6 11 - - -
13/07:00pm - - - - - NW 11 20 6 11 - - -
13/06:30pm - - - - - NNW 11 19 6 10 - - -
13/06:00pm - - - - - NW 11 20 6 11 - - -
13/05:30pm - - - - - NW 7 17 4 9 - - -
13/05:00pm - - - - - NW 7 19 4 10 - - -
13/04:30pm - - - - - NW 11 24 6 13 - - -
13/04:00pm - - - - - NW 7 17 4 9 - - -
13/03:30pm - - - - - WNW 9 17 5 9 - - -
13/03:00pm - - - - - NW 7 17 4 9 - - -
13/02:30pm - - - - - NW 11 20 6 11 - - -
13/02:00pm - - - - - NW 15 32 8 17 - - -
13/01:30pm - - - - - NW 15 26 8 14 - - -
13/01:00pm - - - - - WNW 13 26 7 14 - - -
13/12:30pm - - - - - NW 17 32 9 17 - - -
13/12:00pm - - - - - NW 13 26 7 14 - - -
13/11:30am - - - - - NW 11 20 6 11 - - -
13/11:00am - - - - - NW 11 32 6 17 - - -
13/10:30am - - - - - NW 13 32 7 17 - - -
13/10:00am - - - - - NW 9 24 5 13 - - -
13/09:30am - - - - - NW 9 24 5 13 - - -
13/09:00am - - - - - NW 13 37 7 20 - - -
13/08:30am - - - - - NW 9 22 5 12 - - -
13/08:00am - - - - - NNW 17 32 9 17 - - -

Latest Capital City Observations: Canberra | Sydney | Melbourne | Brisbane | Adelaide | Perth | Hobart | Darwin

Other formats

Comma delimited format used in spreadsheet applications
http://www.bom.gov.au/fwo/IDS60901/IDS60901.95679.axf

JavaScript Object Notation format (JSON) in row-major order
http://www.bom.gov.au/fwo/IDS60901/IDS60901.95679.json

Data quality

Most of these data are generated automatically and are frequently updated. Quality checks on data are not normally performed. It is possible for incorrect values to appear. Refer to information at About Latest Weather Observations and please check the disclaimer before using these data.